sensor_id;sensor_type;location;lat;lon;timestamp;P1;durP1;ratioP1;P2;durP2;ratioP2
21181;SDS011;10749;46.296;7.524;2022-12-29T00:02:14;2.63;;;1.70;;
21181;SDS011;10749;46.296;7.524;2022-12-29T00:04:40;7.57;;;2.00;;
21181;SDS011;10749;46.296;7.524;2022-12-29T00:07:05;1.87;;;1.33;;
21181;SDS011;10749;46.296;7.524;2022-12-29T00:09:32;1.90;;;1.50;;
21181;SDS011;10749;46.296;7.524;2022-12-29T00:11:58;2.47;;;1.40;;
21181;SDS011;10749;46.296;7.524;2022-12-29T00:14:24;2.30;;;1.40;;
21181;SDS011;10749;46.296;7.524;2022-12-29T00:17:08;2.93;;;1.73;;
21181;SDS011;10749;46.296;7.524;2022-12-29T00:19:34;3.17;;;1.50;;
21181;SDS011;10749;46.296;7.524;2022-12-29T00:22:18;2.13;;;1.50;;
21181;SDS011;10749;46.296;7.524;2022-12-29T00:25:03;2.30;;;1.63;;
21181;SDS011;10749;46.296;7.524;2022-12-29T00:27:47;3.00;;;2.03;;
21181;SDS011;10749;46.296;7.524;2022-12-29T00:30:31;3.33;;;1.70;;
21181;SDS011;10749;46.296;7.524;2022-12-29T00:33:16;3.97;;;2.03;;
21181;SDS011;10749;46.296;7.524;2022-12-29T00:36:04;5.67;;;2.53;;
21181;SDS011;10749;46.296;7.524;2022-12-29T00:38:34;6.50;;;3.50;;
21181;SDS011;10749;46.296;7.524;2022-12-29T00:41:22;4.80;;;2.67;;
21181;SDS011;10749;46.296;7.524;2022-12-29T00:44:07;5.27;;;2.33;;
21181;SDS011;10749;46.296;7.524;2022-12-29T00:46:38;5.23;;;2.17;;
21181;SDS011;10749;46.296;7.524;2022-12-29T00:49:05;3.77;;;1.80;;
21181;SDS011;10749;46.296;7.524;2022-12-29T00:51:51;2.97;;;1.70;;
21181;SDS011;10749;46.296;7.524;2022-12-29T00:54:17;3.17;;;1.70;;
21181;SDS011;10749;46.296;7.524;2022-12-29T00:56:43;2.80;;;1.90;;
21181;SDS011;10749;46.296;7.524;2022-12-29T00:59:11;2.73;;;1.70;;
21181;SDS011;10749;46.296;7.524;2022-12-29T01:01:36;3.10;;;1.73;;
21181;SDS011;10749;46.296;7.524;2022-12-29T01:04:03;4.30;;;1.87;;
21181;SDS011;10749;46.296;7.524;2022-12-29T01:06:29;4.43;;;1.57;;
21181;SDS011;10749;46.296;7.524;2022-12-29T01:08:55;2.60;;;1.60;;
21181;SDS011;10749;46.296;7.524;2022-12-29T01:11:39;3.33;;;1.60;;
21181;SDS011;10749;46.296;7.524;2022-12-29T01:14:05;2.63;;;1.40;;
21181;SDS011;10749;46.296;7.524;2022-12-29T01:16:31;3.47;;;1.60;;
21181;SDS011;10749;46.296;7.524;2022-12-29T01:18:56;3.57;;;1.60;;
21181;SDS011;10749;46.296;7.524;2022-12-29T01:21:22;2.87;;;1.40;;
21181;SDS011;10749;46.296;7.524;2022-12-29T01:23:48;3.03;;;1.40;;
21181;SDS011;10749;46.296;7.524;2022-12-29T01:26:14;3.93;;;1.50;;
21181;SDS011;10749;46.296;7.524;2022-12-29T01:28:40;1.90;;;1.30;;
21181;SDS011;10749;46.296;7.524;2022-12-29T01:31:09;2.50;;;1.33;;
21181;SDS011;10749;46.296;7.524;2022-12-29T01:33:36;1.90;;;1.20;;
21181;SDS011;10749;46.296;7.524;2022-12-29T01:36:03;2.33;;;1.30;;
21181;SDS011;10749;46.296;7.524;2022-12-29T01:38:29;3.27;;;1.50;;
21181;SDS011;10749;46.296;7.524;2022-12-29T01:40:55;3.17;;;1.60;;
21181;SDS011;10749;46.296;7.524;2022-12-29T01:43:20;2.43;;;1.77;;
21181;SDS011;10749;46.296;7.524;2022-12-29T01:45:50;2.03;;;1.20;;
21181;SDS011;10749;46.296;7.524;2022-12-29T01:48:18;2.57;;;1.60;;
21181;SDS011;10749;46.296;7.524;2022-12-29T01:50:51;2.30;;;1.40;;
21181;SDS011;10749;46.296;7.524;2022-12-29T01:53:20;2.60;;;1.43;;
21181;SDS011;10749;46.296;7.524;2022-12-29T01:55:50;2.60;;;1.00;;
21181;SDS011;10749;46.296;7.524;2022-12-29T01:58:19;2.87;;;1.47;;
21181;SDS011;10749;46.296;7.524;2022-12-29T02:00:47;1.93;;;1.13;;
21181;SDS011;10749;46.296;7.524;2022-12-29T02:03:13;1.70;;;1.17;;
21181;SDS011;10749;46.296;7.524;2022-12-29T02:05:50;1.73;;;1.30;;
21181;SDS011;10749;46.296;7.524;2022-12-29T02:08:22;1.40;;;1.00;;
21181;SDS011;10749;46.296;7.524;2022-12-29T02:10:51;2.70;;;1.40;;
21181;SDS011;10749;46.296;7.524;2022-12-29T02:13:17;1.77;;;0.97;;
21181;SDS011;10749;46.296;7.524;2022-12-29T02:32:29;2.50;;;0.87;;
21181;SDS011;10749;46.296;7.524;2022-12-29T02:43:12;1.70;;;0.87;;
21181;SDS011;10749;46.296;7.524;2022-12-29T02:45:55;1.40;;;0.93;;
21181;SDS011;10749;46.296;7.524;2022-12-29T02:48:43;0.70;;;0.50;;
21181;SDS011;10749;46.296;7.524;2022-12-29T02:51:25;1.83;;;0.80;;
21181;SDS011;10749;46.296;7.524;2022-12-29T02:54:01;3.90;;;0.87;;
21181;SDS011;10749;46.296;7.524;2022-12-29T02:56:45;1.00;;;0.80;;
21181;SDS011;10749;46.296;7.524;2022-12-29T02:59:10;1.90;;;0.97;;
21181;SDS011;10749;46.296;7.524;2022-12-29T03:06:49;3.00;;;1.23;;
21181;SDS011;10749;46.296;7.524;2022-12-29T03:09:31;4.07;;;1.40;;
21181;SDS011;10749;46.296;7.524;2022-12-29T03:14:45;2.27;;;1.20;;
21181;SDS011;10749;46.296;7.524;2022-12-29T03:18:46;3.47;;;1.30;;
21181;SDS011;10749;46.296;7.524;2022-12-29T03:21:01;2.00;;;1.00;;
21181;SDS011;10749;46.296;7.524;2022-12-29T03:23:32;3.07;;;1.27;;
21181;SDS011;10749;46.296;7.524;2022-12-29T03:26:00;1.80;;;1.17;;
21181;SDS011;10749;46.296;7.524;2022-12-29T03:28:30;2.97;;;1.10;;
21181;SDS011;10749;46.296;7.524;2022-12-29T03:31:00;1.40;;;1.10;;
21181;SDS011;10749;46.296;7.524;2022-12-29T03:33:29;1.50;;;1.10;;
21181;SDS011;10749;46.296;7.524;2022-12-29T03:36:00;1.63;;;1.10;;
21181;SDS011;10749;46.296;7.524;2022-12-29T03:41:28;2.00;;;1.17;;
21181;SDS011;10749;46.296;7.524;2022-12-29T03:43:56;2.20;;;1.27;;
21181;SDS011;10749;46.296;7.524;2022-12-29T03:46:22;4.10;;;1.33;;
21181;SDS011;10749;46.296;7.524;2022-12-29T03:48:47;1.60;;;1.00;;
21181;SDS011;10749;46.296;7.524;2022-12-29T03:51:12;2.47;;;1.00;;
21181;SDS011;10749;46.296;7.524;2022-12-29T03:53:38;1.30;;;0.93;;
21181;SDS011;10749;46.296;7.524;2022-12-29T03:56:03;1.43;;;0.90;;
21181;SDS011;10749;46.296;7.524;2022-12-29T03:58:29;1.87;;;1.20;;
21181;SDS011;10749;46.296;7.524;2022-12-29T04:00:54;2.37;;;0.93;;
21181;SDS011;10749;46.296;7.524;2022-12-29T04:03:20;1.77;;;1.00;;
21181;SDS011;10749;46.296;7.524;2022-12-29T04:05:45;1.10;;;0.87;;
21181;SDS011;10749;46.296;7.524;2022-12-29T04:08:10;3.50;;;1.13;;
21181;SDS011;10749;46.296;7.524;2022-12-29T04:10:35;2.13;;;1.00;;
21181;SDS011;10749;46.296;7.524;2022-12-29T04:13:01;1.53;;;0.90;;
21181;SDS011;10749;46.296;7.524;2022-12-29T04:15:26;1.17;;;1.00;;
21181;SDS011;10749;46.296;7.524;2022-12-29T04:17:51;1.90;;;1.10;;
21181;SDS011;10749;46.296;7.524;2022-12-29T04:20:17;1.80;;;1.10;;
21181;SDS011;10749;46.296;7.524;2022-12-29T04:23:01;2.10;;;1.20;;
21181;SDS011;10749;46.296;7.524;2022-12-29T04:25:28;3.27;;;1.20;;
21181;SDS011;10749;46.296;7.524;2022-12-29T04:27:53;1.80;;;1.27;;
21181;SDS011;10749;46.296;7.524;2022-12-29T04:30:18;1.80;;;1.10;;
21181;SDS011;10749;46.296;7.524;2022-12-29T04:32:44;1.93;;;1.10;;
21181;SDS011;10749;46.296;7.524;2022-12-29T04:35:09;3.47;;;1.30;;
21181;SDS011;10749;46.296;7.524;2022-12-29T04:37:34;1.80;;;1.20;;
21181;SDS011;10749;46.296;7.524;2022-12-29T04:40:00;1.50;;;1.20;;
21181;SDS011;10749;46.296;7.524;2022-12-29T04:42:25;1.63;;;1.00;;
21181;SDS011;10749;46.296;7.524;2022-12-29T04:44:50;1.63;;;1.10;;
21181;SDS011;10749;46.296;7.524;2022-12-29T04:47:15;2.37;;;1.10;;
21181;SDS011;10749;46.296;7.524;2022-12-29T04:49:41;1.83;;;0.90;;
21181;SDS011;10749;46.296;7.524;2022-12-29T04:52:06;2.17;;;1.10;;
21181;SDS011;10749;46.296;7.524;2022-12-29T04:54:33;1.93;;;1.07;;
21181;SDS011;10749;46.296;7.524;2022-12-29T04:56:58;1.53;;;1.00;;
21181;SDS011;10749;46.296;7.524;2022-12-29T04:59:24;1.90;;;1.03;;
21181;SDS011;10749;46.296;7.524;2022-12-29T05:01:49;1.77;;;1.00;;
21181;SDS011;10749;46.296;7.524;2022-12-29T05:04:14;1.10;;;0.70;;
21181;SDS011;10749;46.296;7.524;2022-12-29T05:06:39;1.23;;;0.77;;
21181;SDS011;10749;46.296;7.524;2022-12-29T05:09:05;2.03;;;1.10;;
21181;SDS011;10749;46.296;7.524;2022-12-29T05:11:30;2.80;;;1.30;;
21181;SDS011;10749;46.296;7.524;2022-12-29T05:13:56;1.20;;;0.80;;
21181;SDS011;10749;46.296;7.524;2022-12-29T05:16:21;1.53;;;0.93;;
21181;SDS011;10749;46.296;7.524;2022-12-29T05:18:46;1.73;;;1.10;;
21181;SDS011;10749;46.296;7.524;2022-12-29T05:21:11;2.87;;;0.83;;
21181;SDS011;10749;46.296;7.524;2022-12-29T05:23:37;1.87;;;1.17;;
21181;SDS011;10749;46.296;7.524;2022-12-29T05:26:02;1.70;;;1.10;;
21181;SDS011;10749;46.296;7.524;2022-12-29T05:28:28;1.10;;;1.00;;
21181;SDS011;10749;46.296;7.524;2022-12-29T05:30:53;1.53;;;1.13;;
21181;SDS011;10749;46.296;7.524;2022-12-29T05:35:54;1.30;;;0.97;;
21181;SDS011;10749;46.296;7.524;2022-12-29T05:38:19;1.63;;;0.93;;
21181;SDS011;10749;46.296;7.524;2022-12-29T05:40:45;2.33;;;1.10;;
21181;SDS011;10749;46.296;7.524;2022-12-29T05:43:10;1.73;;;0.80;;
21181;SDS011;10749;46.296;7.524;2022-12-29T05:45:35;3.20;;;1.10;;
21181;SDS011;10749;46.296;7.524;2022-12-29T05:48:01;2.10;;;1.03;;
21181;SDS011;10749;46.296;7.524;2022-12-29T05:50:26;2.93;;;1.10;;
21181;SDS011;10749;46.296;7.524;2022-12-29T05:52:52;2.20;;;1.13;;
21181;SDS011;10749;46.296;7.524;2022-12-29T05:55:18;1.53;;;0.97;;
21181;SDS011;10749;46.296;7.524;2022-12-29T05:57:43;1.70;;;1.17;;
21181;SDS011;10749;46.296;7.524;2022-12-29T06:00:08;1.40;;;0.90;;
21181;SDS011;10749;46.296;7.524;2022-12-29T06:02:35;1.77;;;0.90;;
21181;SDS011;10749;46.296;7.524;2022-12-29T06:05:00;2.73;;;1.10;;
21181;SDS011;10749;46.296;7.524;2022-12-29T06:07:25;1.90;;;1.00;;
21181;SDS011;10749;46.296;7.524;2022-12-29T06:09:51;1.37;;;1.00;;
21181;SDS011;10749;46.296;7.524;2022-12-29T06:12:16;1.60;;;0.93;;
21181;SDS011;10749;46.296;7.524;2022-12-29T06:14:41;2.13;;;1.07;;
21181;SDS011;10749;46.296;7.524;2022-12-29T06:17:07;1.57;;;1.03;;
21181;SDS011;10749;46.296;7.524;2022-12-29T06:19:32;1.43;;;0.90;;
21181;SDS011;10749;46.296;7.524;2022-12-29T06:21:57;2.47;;;0.90;;
21181;SDS011;10749;46.296;7.524;2022-12-29T06:24:23;1.30;;;1.00;;
21181;SDS011;10749;46.296;7.524;2022-12-29T06:26:48;3.83;;;1.00;;
21181;SDS011;10749;46.296;7.524;2022-12-29T06:29:13;3.80;;;1.40;;
21181;SDS011;10749;46.296;7.524;2022-12-29T06:31:42;1.53;;;1.07;;
21181;SDS011;10749;46.296;7.524;2022-12-29T06:34:10;1.70;;;0.93;;
21181;SDS011;10749;46.296;7.524;2022-12-29T06:36:35;2.50;;;1.17;;
21181;SDS011;10749;46.296;7.524;2022-12-29T06:39:00;2.37;;;1.10;;
21181;SDS011;10749;46.296;7.524;2022-12-29T06:41:26;1.20;;;0.90;;
21181;SDS011;10749;46.296;7.524;2022-12-29T06:43:51;4.23;;;1.20;;
21181;SDS011;10749;46.296;7.524;2022-12-29T06:46:16;1.70;;;1.03;;
21181;SDS011;10749;46.296;7.524;2022-12-29T06:48:42;3.93;;;1.47;;
21181;SDS011;10749;46.296;7.524;2022-12-29T06:51:07;3.00;;;1.40;;
21181;SDS011;10749;46.296;7.524;2022-12-29T06:53:33;3.93;;;1.10;;
21181;SDS011;10749;46.296;7.524;2022-12-29T06:55:58;1.47;;;1.00;;
21181;SDS011;10749;46.296;7.524;2022-12-29T06:58:24;2.73;;;1.60;;
21181;SDS011;10749;46.296;7.524;2022-12-29T07:00:49;2.93;;;1.83;;
21181;SDS011;10749;46.296;7.524;2022-12-29T07:03:14;4.83;;;1.57;;
21181;SDS011;10749;46.296;7.524;2022-12-29T07:05:39;2.33;;;1.50;;
21181;SDS011;10749;46.296;7.524;2022-12-29T07:08:05;2.13;;;1.37;;
21181;SDS011;10749;46.296;7.524;2022-12-29T07:10:30;2.23;;;1.40;;
21181;SDS011;10749;46.296;7.524;2022-12-29T07:12:56;3.07;;;1.30;;
21181;SDS011;10749;46.296;7.524;2022-12-29T07:15:21;3.53;;;1.40;;
21181;SDS011;10749;46.296;7.524;2022-12-29T07:17:46;3.23;;;1.37;;
21181;SDS011;10749;46.296;7.524;2022-12-29T07:20:14;1.77;;;1.20;;
21181;SDS011;10749;46.296;7.524;2022-12-29T07:22:39;1.73;;;1.20;;
21181;SDS011;10749;46.296;7.524;2022-12-29T07:25:05;3.10;;;1.40;;
21181;SDS011;10749;46.296;7.524;2022-12-29T07:27:30;3.37;;;1.33;;
21181;SDS011;10749;46.296;7.524;2022-12-29T07:29:56;1.40;;;1.20;;
21181;SDS011;10749;46.296;7.524;2022-12-29T07:32:21;3.03;;;1.23;;
21181;SDS011;10749;46.296;7.524;2022-12-29T07:34:46;2.03;;;1.30;;
21181;SDS011;10749;46.296;7.524;2022-12-29T07:37:12;1.83;;;1.20;;
21181;SDS011;10749;46.296;7.524;2022-12-29T07:39:39;2.33;;;1.37;;
21181;SDS011;10749;46.296;7.524;2022-12-29T07:42:05;2.97;;;1.63;;
21181;SDS011;10749;46.296;7.524;2022-12-29T07:44:30;2.57;;;1.50;;
21181;SDS011;10749;46.296;7.524;2022-12-29T07:46:55;1.97;;;1.30;;
21181;SDS011;10749;46.296;7.524;2022-12-29T07:49:21;4.03;;;1.60;;
21181;SDS011;10749;46.296;7.524;2022-12-29T07:51:46;2.30;;;1.40;;
21181;SDS011;10749;46.296;7.524;2022-12-29T07:54:12;1.57;;;1.17;;
21181;SDS011;10749;46.296;7.524;2022-12-29T07:56:37;2.23;;;1.10;;
21181;SDS011;10749;46.296;7.524;2022-12-29T07:59:03;1.73;;;1.27;;
21181;SDS011;10749;46.296;7.524;2022-12-29T08:01:28;2.27;;;1.47;;
21181;SDS011;10749;46.296;7.524;2022-12-29T08:03:54;4.43;;;1.23;;
21181;SDS011;10749;46.296;7.524;2022-12-29T08:06:19;3.00;;;1.47;;
21181;SDS011;10749;46.296;7.524;2022-12-29T08:08:45;2.47;;;1.60;;
21181;SDS011;10749;46.296;7.524;2022-12-29T08:11:10;4.20;;;1.47;;
21181;SDS011;10749;46.296;7.524;2022-12-29T08:13:35;2.23;;;1.40;;
21181;SDS011;10749;46.296;7.524;2022-12-29T08:16:01;4.57;;;1.80;;
21181;SDS011;10749;46.296;7.524;2022-12-29T08:18:26;3.30;;;1.30;;
21181;SDS011;10749;46.296;7.524;2022-12-29T08:20:51;2.27;;;1.50;;
21181;SDS011;10749;46.296;7.524;2022-12-29T08:23:16;2.70;;;1.60;;
21181;SDS011;10749;46.296;7.524;2022-12-29T08:25:42;3.40;;;2.10;;
21181;SDS011;10749;46.296;7.524;2022-12-29T08:28:07;2.07;;;1.60;;
21181;SDS011;10749;46.296;7.524;2022-12-29T08:30:32;2.93;;;1.70;;
21181;SDS011;10749;46.296;7.524;2022-12-29T08:32:58;4.37;;;2.23;;
21181;SDS011;10749;46.296;7.524;2022-12-29T08:35:23;3.47;;;2.03;;
21181;SDS011;10749;46.296;7.524;2022-12-29T08:37:48;6.13;;;2.17;;
21181;SDS011;10749;46.296;7.524;2022-12-29T08:40:14;3.60;;;1.90;;
21181;SDS011;10749;46.296;7.524;2022-12-29T08:42:39;3.27;;;2.17;;
21181;SDS011;10749;46.296;7.524;2022-12-29T08:45:05;3.70;;;2.40;;
21181;SDS011;10749;46.296;7.524;2022-12-29T08:47:31;3.17;;;1.70;;
21181;SDS011;10749;46.296;7.524;2022-12-29T08:49:56;4.07;;;2.00;;
21181;SDS011;10749;46.296;7.524;2022-12-29T08:52:21;5.27;;;2.43;;
21181;SDS011;10749;46.296;7.524;2022-12-29T08:54:47;5.63;;;2.10;;
21181;SDS011;10749;46.296;7.524;2022-12-29T08:57:13;4.07;;;1.80;;
21181;SDS011;10749;46.296;7.524;2022-12-29T08:59:38;3.30;;;1.87;;
21181;SDS011;10749;46.296;7.524;2022-12-29T09:02:03;4.97;;;1.97;;
21181;SDS011;10749;46.296;7.524;2022-12-29T09:04:29;4.47;;;2.00;;
21181;SDS011;10749;46.296;7.524;2022-12-29T09:06:54;5.43;;;2.00;;
21181;SDS011;10749;46.296;7.524;2022-12-29T09:09:20;3.13;;;1.77;;
21181;SDS011;10749;46.296;7.524;2022-12-29T09:11:46;3.93;;;1.80;;
21181;SDS011;10749;46.296;7.524;2022-12-29T09:14:11;4.87;;;2.23;;
21181;SDS011;10749;46.296;7.524;2022-12-29T09:16:37;3.43;;;1.67;;
21181;SDS011;10749;46.296;7.524;2022-12-29T09:19:03;3.10;;;1.80;;
21181;SDS011;10749;46.296;7.524;2022-12-29T09:21:28;3.77;;;2.10;;
21181;SDS011;10749;46.296;7.524;2022-12-29T09:23:54;3.90;;;2.17;;
21181;SDS011;10749;46.296;7.524;2022-12-29T09:26:19;5.33;;;2.23;;
21181;SDS011;10749;46.296;7.524;2022-12-29T09:28:44;6.37;;;2.40;;
21181;SDS011;10749;46.296;7.524;2022-12-29T09:31:10;2.53;;;2.00;;
21181;SDS011;10749;46.296;7.524;2022-12-29T09:33:36;6.07;;;2.87;;
21181;SDS011;10749;46.296;7.524;2022-12-29T09:36:02;6.70;;;3.10;;
21181;SDS011;10749;46.296;7.524;2022-12-29T09:38:28;7.17;;;3.40;;
21181;SDS011;10749;46.296;7.524;2022-12-29T09:41:29;4.87;;;3.00;;
21181;SDS011;10749;46.296;7.524;2022-12-29T09:43:54;6.00;;;3.40;;
21181;SDS011;10749;46.296;7.524;2022-12-29T09:46:37;6.77;;;4.10;;
21181;SDS011;10749;46.296;7.524;2022-12-29T09:51:48;10.43;;;5.30;;
21181;SDS011;10749;46.296;7.524;2022-12-29T09:54:23;8.57;;;5.23;;
21181;SDS011;10749;46.296;7.524;2022-12-29T09:56:48;8.50;;;4.70;;
21181;SDS011;10749;46.296;7.524;2022-12-29T09:59:15;8.90;;;5.20;;
21181;SDS011;10749;46.296;7.524;2022-12-29T10:04:52;7.63;;;4.37;;
21181;SDS011;10749;46.296;7.524;2022-12-29T10:07:26;8.40;;;4.20;;
21181;SDS011;10749;46.296;7.524;2022-12-29T10:10:03;4.33;;;2.67;;
21181;SDS011;10749;46.296;7.524;2022-12-29T10:12:52;5.27;;;2.17;;
21181;SDS011;10749;46.296;7.524;2022-12-29T10:21:29;5.43;;;2.50;;
21181;SDS011;10749;46.296;7.524;2022-12-29T10:24:20;4.87;;;2.87;;
21181;SDS011;10749;46.296;7.524;2022-12-29T10:26:46;4.83;;;3.13;;
21181;SDS011;10749;46.296;7.524;2022-12-29T10:29:16;5.07;;;3.00;;
21181;SDS011;10749;46.296;7.524;2022-12-29T10:34:36;5.53;;;3.40;;
21181;SDS011;10749;46.296;7.524;2022-12-29T10:37:11;6.80;;;2.70;;
21181;SDS011;10749;46.296;7.524;2022-12-29T10:39:57;6.70;;;3.00;;
21181;SDS011;10749;46.296;7.524;2022-12-29T10:42:28;5.63;;;2.73;;
21181;SDS011;10749;46.296;7.524;2022-12-29T10:45:01;8.57;;;2.93;;
21181;SDS011;10749;46.296;7.524;2022-12-29T10:47:29;4.63;;;2.80;;
21181;SDS011;10749;46.296;7.524;2022-12-29T10:50:00;2.80;;;2.20;;
21181;SDS011;10749;46.296;7.524;2022-12-29T10:52:26;4.10;;;1.90;;
21181;SDS011;10749;46.296;7.524;2022-12-29T10:55:03;2.60;;;1.60;;
21181;SDS011;10749;46.296;7.524;2022-12-29T10:57:38;3.77;;;2.20;;
21181;SDS011;10749;46.296;7.524;2022-12-29T11:00:12;3.87;;;2.10;;
21181;SDS011;10749;46.296;7.524;2022-12-29T11:07:56;3.87;;;2.03;;
21181;SDS011;10749;46.296;7.524;2022-12-29T11:13:00;4.13;;;2.17;;
21181;SDS011;10749;46.296;7.524;2022-12-29T11:15:42;3.10;;;1.83;;
21181;SDS011;10749;46.296;7.524;2022-12-29T11:20:59;3.70;;;1.87;;
21181;SDS011;10749;46.296;7.524;2022-12-29T11:23:33;2.93;;;1.90;;
21181;SDS011;10749;46.296;7.524;2022-12-29T11:26:15;2.67;;;1.97;;
21181;SDS011;10749;46.296;7.524;2022-12-29T11:28:52;2.37;;;1.63;;
21181;SDS011;10749;46.296;7.524;2022-12-29T11:31:28;3.60;;;2.40;;
21181;SDS011;10749;46.296;7.524;2022-12-29T11:33:54;4.57;;;1.90;;
21181;SDS011;10749;46.296;7.524;2022-12-29T11:36:20;3.70;;;1.77;;
21181;SDS011;10749;46.296;7.524;2022-12-29T11:38:48;5.83;;;2.50;;
21181;SDS011;10749;46.296;7.524;2022-12-29T11:41:22;4.53;;;2.50;;
21181;SDS011;10749;46.296;7.524;2022-12-29T11:43:50;3.43;;;1.93;;
21181;SDS011;10749;46.296;7.524;2022-12-29T11:46:20;3.70;;;2.20;;
21181;SDS011;10749;46.296;7.524;2022-12-29T11:48:49;3.90;;;2.80;;
21181;SDS011;10749;46.296;7.524;2022-12-29T11:51:25;3.67;;;2.47;;
21181;SDS011;10749;46.296;7.524;2022-12-29T11:53:58;4.00;;;2.40;;
21181;SDS011;10749;46.296;7.524;2022-12-29T11:56:34;3.23;;;2.17;;
21181;SDS011;10749;46.296;7.524;2022-12-29T12:02:24;3.60;;;2.10;;
21181;SDS011;10749;46.296;7.524;2022-12-29T12:05:14;4.10;;;2.37;;
21181;SDS011;10749;46.296;7.524;2022-12-29T12:07:52;2.93;;;2.03;;
21181;SDS011;10749;46.296;7.524;2022-12-29T12:10:23;4.47;;;2.00;;
21181;SDS011;10749;46.296;7.524;2022-12-29T12:12:56;4.20;;;2.60;;
21181;SDS011;10749;46.296;7.524;2022-12-29T12:15:48;3.30;;;2.03;;
21181;SDS011;10749;46.296;7.524;2022-12-29T12:24:37;5.07;;;2.60;;
21181;SDS011;10749;46.296;7.524;2022-12-29T12:30:02;6.77;;;2.60;;
21181;SDS011;10749;46.296;7.524;2022-12-29T12:38:42;3.77;;;2.20;;
21181;SDS011;10749;46.296;7.524;2022-12-29T13:00:35;3.23;;;2.07;;
21181;SDS011;10749;46.296;7.524;2022-12-29T13:06:09;4.60;;;1.90;;
21181;SDS011;10749;46.296;7.524;2022-12-29T13:19:20;2.30;;;1.80;;
21181;SDS011;10749;46.296;7.524;2022-12-29T13:24:42;4.73;;;2.00;;
21181;SDS011;10749;46.296;7.524;2022-12-29T13:27:22;3.80;;;1.80;;
21181;SDS011;10749;46.296;7.524;2022-12-29T13:32:32;4.60;;;2.10;;
21181;SDS011;10749;46.296;7.524;2022-12-29T13:37:32;4.47;;;1.57;;
21181;SDS011;10749;46.296;7.524;2022-12-29T13:40:02;3.27;;;1.63;;
21181;SDS011;10749;46.296;7.524;2022-12-29T13:42:35;3.43;;;1.67;;
21181;SDS011;10749;46.296;7.524;2022-12-29T13:45:05;5.03;;;1.50;;
21181;SDS011;10749;46.296;7.524;2022-12-29T13:47:37;2.67;;;1.63;;
21181;SDS011;10749;46.296;7.524;2022-12-29T13:50:17;4.03;;;1.87;;
21181;SDS011;10749;46.296;7.524;2022-12-29T13:55:39;4.23;;;1.70;;
21181;SDS011;10749;46.296;7.524;2022-12-29T13:58:20;3.87;;;1.80;;
21181;SDS011;10749;46.296;7.524;2022-12-29T14:01:10;3.60;;;1.70;;
21181;SDS011;10749;46.296;7.524;2022-12-29T14:03:48;3.10;;;1.57;;
21181;SDS011;10749;46.296;7.524;2022-12-29T14:06:27;2.87;;;1.50;;
21181;SDS011;10749;46.296;7.524;2022-12-29T14:08:58;2.63;;;1.60;;
21181;SDS011;10749;46.296;7.524;2022-12-29T14:11:32;2.20;;;1.37;;
21181;SDS011;10749;46.296;7.524;2022-12-29T14:14:09;2.50;;;1.53;;
21181;SDS011;10749;46.296;7.524;2022-12-29T14:17:08;2.37;;;1.40;;
21181;SDS011;10749;46.296;7.524;2022-12-29T14:19:36;2.37;;;1.50;;
21181;SDS011;10749;46.296;7.524;2022-12-29T14:22:06;3.30;;;1.60;;
21181;SDS011;10749;46.296;7.524;2022-12-29T14:34:49;2.93;;;1.70;;
21181;SDS011;10749;46.296;7.524;2022-12-29T14:37:35;3.10;;;1.80;;
21181;SDS011;10749;46.296;7.524;2022-12-29T14:42:50;4.93;;;1.70;;
21181;SDS011;10749;46.296;7.524;2022-12-29T14:47:44;6.10;;;2.00;;
21181;SDS011;10749;46.296;7.524;2022-12-29T14:53:02;2.17;;;1.47;;
21181;SDS011;10749;46.296;7.524;2022-12-29T14:55:46;3.40;;;1.87;;
21181;SDS011;10749;46.296;7.524;2022-12-29T14:58:23;4.03;;;2.20;;
21181;SDS011;10749;46.296;7.524;2022-12-29T15:00:51;3.37;;;2.07;;
21181;SDS011;10749;46.296;7.524;2022-12-29T15:05:46;5.73;;;2.40;;
21181;SDS011;10749;46.296;7.524;2022-12-29T15:08:19;6.13;;;2.13;;
21181;SDS011;10749;46.296;7.524;2022-12-29T15:10:49;3.70;;;2.10;;
21181;SDS011;10749;46.296;7.524;2022-12-29T15:13:32;4.03;;;2.00;;
21181;SDS011;10749;46.296;7.524;2022-12-29T15:16:00;3.63;;;2.00;;
21181;SDS011;10749;46.296;7.524;2022-12-29T15:20:55;4.67;;;1.97;;
21181;SDS011;10749;46.296;7.524;2022-12-29T15:23:24;5.40;;;2.03;;
21181;SDS011;10749;46.296;7.524;2022-12-29T15:25:57;3.83;;;2.00;;
21181;SDS011;10749;46.296;7.524;2022-12-29T15:28:25;7.20;;;2.10;;
21181;SDS011;10749;46.296;7.524;2022-12-29T15:30:52;4.10;;;2.00;;
21181;SDS011;10749;46.296;7.524;2022-12-29T15:33:26;3.90;;;2.07;;
21181;SDS011;10749;46.296;7.524;2022-12-29T15:35:53;8.70;;;2.80;;
21181;SDS011;10749;46.296;7.524;2022-12-29T15:38:29;5.47;;;2.63;;
21181;SDS011;10749;46.296;7.524;2022-12-29T15:43:57;4.60;;;2.63;;
21181;SDS011;10749;46.296;7.524;2022-12-29T15:46:23;4.53;;;2.43;;
21181;SDS011;10749;46.296;7.524;2022-12-29T15:48:49;5.63;;;2.70;;
21181;SDS011;10749;46.296;7.524;2022-12-29T15:51:18;4.17;;;2.63;;
21181;SDS011;10749;46.296;7.524;2022-12-29T15:53:48;3.90;;;2.60;;
21181;SDS011;10749;46.296;7.524;2022-12-29T15:56:16;4.67;;;2.50;;
21181;SDS011;10749;46.296;7.524;2022-12-29T15:58:44;5.43;;;2.50;;
21181;SDS011;10749;46.296;7.524;2022-12-29T16:01:20;5.47;;;2.57;;
21181;SDS011;10749;46.296;7.524;2022-12-29T16:03:52;5.83;;;2.63;;
21181;SDS011;10749;46.296;7.524;2022-12-29T16:06:28;6.20;;;2.43;;
21181;SDS011;10749;46.296;7.524;2022-12-29T16:09:00;7.13;;;4.07;;
21181;SDS011;10749;46.296;7.524;2022-12-29T16:11:40;9.30;;;4.77;;
21181;SDS011;10749;46.296;7.524;2022-12-29T16:14:19;10.20;;;5.27;;
21181;SDS011;10749;46.296;7.524;2022-12-29T16:16:49;8.83;;;4.10;;
21181;SDS011;10749;46.296;7.524;2022-12-29T16:19:21;7.27;;;4.40;;
21181;SDS011;10749;46.296;7.524;2022-12-29T16:21:52;8.63;;;5.00;;
21181;SDS011;10749;46.296;7.524;2022-12-29T16:24:18;6.87;;;4.00;;
21181;SDS011;10749;46.296;7.524;2022-12-29T16:26:51;7.83;;;4.73;;
21181;SDS011;10749;46.296;7.524;2022-12-29T16:29:24;8.90;;;4.77;;
21181;SDS011;10749;46.296;7.524;2022-12-29T16:31:57;11.07;;;5.33;;
21181;SDS011;10749;46.296;7.524;2022-12-29T16:34:33;10.43;;;5.33;;
21181;SDS011;10749;46.296;7.524;2022-12-29T16:40:18;8.50;;;5.80;;
21181;SDS011;10749;46.296;7.524;2022-12-29T16:47:48;9.40;;;5.40;;
21181;SDS011;10749;46.296;7.524;2022-12-29T16:50:29;8.43;;;5.10;;
21181;SDS011;10749;46.296;7.524;2022-12-29T16:52:55;8.60;;;5.10;;
21181;SDS011;10749;46.296;7.524;2022-12-29T16:55:20;11.93;;;4.90;;
21181;SDS011;10749;46.296;7.524;2022-12-29T16:57:46;16.93;;;7.20;;
21181;SDS011;10749;46.296;7.524;2022-12-29T17:00:18;15.93;;;8.10;;
21181;SDS011;10749;46.296;7.524;2022-12-29T17:02:46;15.20;;;7.87;;
21181;SDS011;10749;46.296;7.524;2022-12-29T17:05:14;14.03;;;6.80;;
21181;SDS011;10749;46.296;7.524;2022-12-29T17:07:41;13.17;;;7.23;;
21181;SDS011;10749;46.296;7.524;2022-12-29T17:10:07;12.40;;;6.60;;
21181;SDS011;10749;46.296;7.524;2022-12-29T17:12:33;9.70;;;6.57;;
21181;SDS011;10749;46.296;7.524;2022-12-29T17:17:35;9.50;;;5.97;;
21181;SDS011;10749;46.296;7.524;2022-12-29T17:20:26;9.60;;;5.70;;
21181;SDS011;10749;46.296;7.524;2022-12-29T17:22:51;9.13;;;5.03;;
21181;SDS011;10749;46.296;7.524;2022-12-29T17:25:31;7.10;;;4.07;;
21181;SDS011;10749;46.296;7.524;2022-12-29T17:27:59;4.57;;;3.20;;
21181;SDS011;10749;46.296;7.524;2022-12-29T17:30:28;6.97;;;3.77;;
21181;SDS011;10749;46.296;7.524;2022-12-29T17:32:59;8.77;;;4.47;;
21181;SDS011;10749;46.296;7.524;2022-12-29T17:35:30;8.17;;;4.40;;
21181;SDS011;10749;46.296;7.524;2022-12-29T17:37:55;9.63;;;4.40;;
21181;SDS011;10749;46.296;7.524;2022-12-29T17:40:21;9.57;;;6.73;;
21181;SDS011;10749;46.296;7.524;2022-12-29T17:42:54;10.27;;;6.43;;
21181;SDS011;10749;46.296;7.524;2022-12-29T17:45:22;16.43;;;7.73;;
21181;SDS011;10749;46.296;7.524;2022-12-29T17:47:49;16.33;;;8.40;;